createdAt,value
2022-08-19T00:01:30.443Z,99133.56
2022-08-19T00:04:00.015Z,99138.25
2022-08-19T00:06:27.813Z,99139.06
2022-08-19T00:08:54.845Z,99133.56
2022-08-19T00:11:25.375Z,99137.84
2022-08-19T00:13:53.381Z,99133.88
2022-08-19T00:16:26.215Z,99128.75
2022-08-19T00:18:54.672Z,99131.09
2022-08-19T00:21:21.314Z,99125.53
2022-08-19T00:23:47.966Z,99133.00
2022-08-19T00:26:15.041Z,99127.06
2022-08-19T00:28:42.151Z,99130.97
2022-08-19T00:31:10.612Z,99123.88
2022-08-19T00:33:37.279Z,99129.81
2022-08-19T00:36:07.423Z,99121.56
2022-08-19T00:38:38.416Z,99123.16
2022-08-19T00:41:08.794Z,99112.94
2022-08-19T00:43:35.464Z,99118.88
2022-08-19T00:46:05.522Z,99108.69
2022-08-19T00:48:33.642Z,99106.34
2022-08-19T00:51:01.552Z,99110.28
2022-08-19T00:53:30.672Z,99096.53
2022-08-19T00:56:00.957Z,99092.22
2022-08-19T00:58:33.514Z,99102.84
2022-08-19T01:01:01.834Z,99106.00
2022-08-19T01:03:28.754Z,99116.25
2022-08-19T01:06:15.599Z,99107.59
2022-08-19T01:08:46.715Z,99108.44
2022-08-19T01:11:16.840Z,99109.25
2022-08-19T01:13:45.604Z,99099.41
2022-08-19T01:16:19.797Z,99098.19
2022-08-19T01:18:46.653Z,99096.97
2022-08-19T01:21:36.036Z,99088.69
2022-08-19T01:24:02.772Z,99094.19
2022-08-19T01:26:29.432Z,99096.50
2022-08-19T01:29:00.864Z,99094.94
2022-08-19T01:31:32.906Z,99083.94
2022-08-19T01:34:00.712Z,99092.19
2022-08-19T01:36:42.872Z,99091.38
2022-08-19T01:39:13.459Z,99097.97
2022-08-19T01:41:40.325Z,99114.06
2022-08-19T01:44:17.744Z,99102.22
2022-08-19T01:46:48.098Z,99100.97
2022-08-19T01:49:15.437Z,99103.31
2022-08-19T01:51:42.066Z,99104.03
2022-08-19T01:54:10.847Z,99102.03
2022-08-19T01:56:37.632Z,99100.00
2022-08-19T01:59:11.610Z,99110.97
2022-08-19T02:01:38.237Z,99102.25
2022-08-19T02:04:04.791Z,99103.00
2022-08-19T02:06:31.351Z,99100.66
2022-08-19T02:08:58.555Z,99106.91
2022-08-19T02:11:32.315Z,99110.81
2022-08-19T02:13:59.930Z,99113.56
2022-08-19T02:16:26.473Z,99114.72
2022-08-19T02:18:53.102Z,99111.53
2022-08-19T02:21:21.893Z,99108.00
2022-08-19T02:23:49.545Z,99103.66
2022-08-19T02:26:17.537Z,99111.47
2022-08-19T02:28:44.367Z,99101.31
2022-08-19T02:31:17.000Z,99102.81
2022-08-19T02:33:43.971Z,99110.25
2022-08-19T02:36:12.806Z,99112.22
2022-08-19T02:38:42.941Z,99110.25
2022-08-19T02:41:34.458Z,99119.97
2022-08-19T02:44:30.636Z,99123.53
2022-08-19T02:46:51.791Z,99127.78
2022-08-19T02:49:19.962Z,99131.69
2022-08-19T02:51:47.618Z,99124.63
2022-08-19T02:54:14.555Z,99130.13
2022-08-19T02:56:42.782Z,99135.59
2022-08-19T02:59:11.194Z,99130.13
2022-08-19T03:01:41.256Z,99126.09
2022-08-19T03:04:09.845Z,99126.91
2022-08-19T03:06:38.870Z,99131.97
2022-08-19T03:09:05.559Z,99125.69
2022-08-19T03:11:33.906Z,99123.31
2022-08-19T03:14:02.811Z,99129.09
2022-08-19T03:16:33.179Z,99122.75
2022-08-19T03:19:01.167Z,99129.78
2022-08-19T03:21:31.594Z,99124.66
2022-08-19T03:24:08.706Z,99136.81
2022-08-19T03:26:38.921Z,99135.22
2022-08-19T03:29:05.955Z,99148.13
2022-08-19T03:31:44.462Z,99134.78
2022-08-19T03:34:22.073Z,99138.25
2022-08-19T03:36:49.386Z,99140.16
2022-08-19T03:39:16.767Z,99138.50
2022-08-19T03:41:46.651Z,99138.06
2022-08-19T03:44:18.137Z,99140.25
2022-08-19T03:46:47.225Z,99146.25
2022-08-19T03:49:14.546Z,99136.50
2022-08-19T03:51:43.086Z,99142.03
2022-08-19T03:54:13.890Z,99139.28
2022-08-19T03:56:42.975Z,99140.44
2022-08-19T03:59:12.649Z,99138.94
2022-08-19T04:01:39.240Z,99140.50
2022-08-19T04:04:06.544Z,99137.41
2022-08-19T04:06:36.266Z,99142.91
2022-08-19T04:09:09.271Z,99136.97
2022-08-19T04:11:44.937Z,99147.09
2022-08-19T04:14:21.381Z,99150.56
2022-08-19T04:16:49.283Z,99153.72
2022-08-19T04:19:17.470Z,99148.63
2022-08-19T04:21:46.764Z,99149.41
2022-08-19T04:24:13.967Z,99147.91
2022-08-19T04:26:40.804Z,99151.41
2022-08-19T04:29:23.010Z,99153.31
2022-08-19T04:31:50.286Z,99156.00
2022-08-19T04:34:23.402Z,99157.44
2022-08-19T04:36:53.680Z,99162.16
2022-08-19T04:39:23.280Z,99163.66
2022-08-19T04:42:08.416Z,99159.72
2022-08-19T04:44:39.894Z,99158.91
2022-08-19T04:47:13.282Z,99162.00
2022-08-19T04:49:39.860Z,99158.81
2022-08-19T04:52:06.409Z,99169.81
2022-08-19T04:54:38.607Z,99165.47
2022-08-19T04:57:08.411Z,99167.44
2022-08-19T04:59:35.803Z,99171.53
2022-08-19T05:02:02.765Z,99169.63
2022-08-19T05:04:33.137Z,99169.44
2022-08-19T05:07:01.951Z,99172.31
2022-08-19T05:09:55.549Z,99170.75
2022-08-19T05:12:16.961Z,99174.56
2022-08-19T05:14:44.228Z,99170.75
2022-08-19T05:17:27.209Z,99173.75
2022-08-19T05:20:14.271Z,99177.09
2022-08-19T05:22:41.924Z,99173.31
2022-08-19T05:25:13.871Z,99168.28
2022-08-19T05:27:41.539Z,99164.81
2022-08-19T05:30:08.613Z,99169.66
2022-08-19T05:32:35.321Z,99172.84
2022-08-19T05:35:02.438Z,99173.38
2022-08-19T05:37:29.158Z,99168.78
2022-08-19T05:39:56.256Z,99174.03
2022-08-19T05:42:24.185Z,99175.69
2022-08-19T05:44:52.082Z,99181.28
2022-08-19T05:47:20.869Z,99192.38
2022-08-19T05:49:48.479Z,99182.59
2022-08-19T05:52:19.570Z,99184.94
2022-08-19T05:54:55.559Z,99189.34
2022-08-19T05:57:22.954Z,99185.03
2022-08-19T05:59:52.749Z,99194.91
2022-08-19T06:02:28.331Z,99200.31
2022-08-19T06:04:54.997Z,99197.81
2022-08-19T06:07:21.779Z,99197.19
2022-08-19T06:09:59.945Z,99206.00
2022-08-19T06:12:34.141Z,99198.53
2022-08-19T06:15:03.056Z,99211.06
2022-08-19T06:17:31.806Z,99207.47
2022-08-19T06:19:59.547Z,99199.47
2022-08-19T06:22:27.045Z,99207.31
2022-08-19T06:24:55.108Z,99208.00
2022-08-19T06:27:22.742Z,99207.34
2022-08-19T06:29:49.592Z,99216.75
2022-08-19T06:32:19.398Z,99222.19
2022-08-19T06:34:46.145Z,99219.94
2022-08-19T06:37:12.883Z,99222.25
2022-08-19T06:39:42.153Z,99228.50
2022-08-19T06:42:12.453Z,99222.28
2022-08-19T06:44:43.070Z,99225.81
2022-08-19T06:47:14.617Z,99218.38
2022-08-19T06:49:42.281Z,99225.56
2022-08-19T06:52:09.712Z,99231.50
2022-08-19T06:54:55.418Z,99233.91
2022-08-19T06:57:25.344Z,99237.94
2022-08-19T06:59:52.660Z,99239.94
2022-08-19T07:02:19.889Z,99246.69
2022-08-19T07:04:46.520Z,99245.56
2022-08-19T07:07:20.306Z,99257.00
2022-08-19T07:09:51.835Z,99244.88
2022-08-19T07:12:28.393Z,99249.69
2022-08-19T07:14:56.821Z,99242.72
2022-08-19T07:17:24.546Z,99248.38
2022-08-19T07:19:51.527Z,99244.13
2022-08-19T07:22:24.404Z,99241.34
2022-08-19T07:24:52.263Z,99252.06
2022-08-19T07:27:24.714Z,99245.81
2022-08-19T07:29:55.993Z,99247.03
2022-08-19T07:32:23.893Z,99247.88
2022-08-19T07:34:50.458Z,99253.47
2022-08-19T07:37:17.193Z,99249.94
2022-08-19T07:39:43.821Z,99253.59
2022-08-19T07:42:13.342Z,99254.41
2022-08-19T07:47:49.299Z,99254.44
2022-08-19T07:50:00.836Z,99252.50
2022-08-19T07:52:27.532Z,99242.69
2022-08-19T07:54:54.070Z,99250.66
2022-08-19T07:57:20.666Z,99257.72
2022-08-19T07:59:47.250Z,99245.84
2022-08-19T08:02:13.943Z,99250.63
2022-08-19T08:04:59.099Z,99243.47
2022-08-19T08:07:46.353Z,99251.75
2022-08-19T08:10:21.020Z,99256.47
2022-08-19T08:12:58.373Z,99245.00
2022-08-19T08:15:38.701Z,99238.69
2022-08-19T08:18:08.836Z,99242.66
2022-08-19T08:20:36.096Z,99245.03
2022-08-19T08:23:21.605Z,99238.72
2022-08-19T08:25:50.093Z,99245.06
2022-08-19T08:28:20.123Z,99238.78
2022-08-19T08:30:50.669Z,99250.66
2022-08-19T08:33:32.819Z,99241.97
2022-08-19T08:36:12.090Z,99253.81
2022-08-19T08:38:40.958Z,99252.25
2022-08-19T08:41:55.420Z,99265.28
2022-08-19T08:44:48.078Z,99260.94
2022-08-19T08:47:19.194Z,99259.34
2022-08-19T08:49:57.843Z,99255.41
2022-08-19T08:52:36.339Z,99248.28
2022-08-19T08:55:20.474Z,99256.59
2022-08-19T08:57:49.996Z,99248.31
2022-08-19T09:00:22.242Z,99250.66
2022-08-19T09:02:50.575Z,99248.25
2022-08-19T09:05:22.635Z,99247.38
2022-08-19T09:08:06.457Z,99246.94
2022-08-19T09:10:44.981Z,99244.22
2022-08-19T09:13:37.869Z,99245.06
2022-08-19T09:16:14.043Z,99243.88
2022-08-19T09:18:50.068Z,99241.50
2022-08-19T09:21:17.187Z,99238.69
2022-08-19T09:23:44.324Z,99233.56
2022-08-19T09:26:14.552Z,99233.53
2022-08-19T09:28:45.114Z,99240.66
2022-08-19T09:31:18.412Z,99234.38
2022-08-19T09:33:45.235Z,99238.72
2022-08-19T09:36:21.772Z,99233.94
2022-08-19T09:39:02.405Z,99231.53
2022-08-19T09:41:29.160Z,99237.09
2022-08-19T09:43:58.158Z,99236.34
2022-08-19T09:46:28.417Z,99239.91
2022-08-19T09:49:06.021Z,99241.91
2022-08-19T09:51:35.118Z,99243.88
2022-08-19T09:54:05.901Z,99244.69
2022-08-19T09:56:34.137Z,99240.38
2022-08-19T09:59:03.053Z,99251.84
2022-08-19T10:01:31.869Z,99246.31
2022-08-19T10:04:01.066Z,99257.00
2022-08-19T10:06:44.018Z,99259.75
2022-08-19T10:09:13.917Z,99247.91
2022-08-19T10:11:47.996Z,99250.66
2022-08-19T10:14:23.394Z,99249.88
2022-08-19T10:16:50.575Z,99253.44
2022-08-19T10:19:26.143Z,99249.84
2022-08-19T10:21:53.547Z,99255.41
2022-08-19T10:24:21.640Z,99242.38
2022-08-19T10:26:55.783Z,99260.94
2022-08-19T10:29:33.049Z,99251.84
2022-08-19T10:32:02.814Z,99239.56
2022-08-19T10:34:30.854Z,99255.38
2022-08-19T10:37:00.477Z,99247.09
2022-08-19T10:39:32.700Z,99247.09
2022-08-19T10:42:11.542Z,99229.31
2022-08-19T10:44:38.307Z,99247.06
2022-08-19T10:47:05.412Z,99249.44
2022-08-19T10:50:03.447Z,99248.25
2022-08-19T10:52:38.984Z,99253.00
2022-08-19T10:55:29.278Z,99255.81
2022-08-19T10:58:02.455Z,99241.16
2022-08-19T11:00:31.837Z,99255.41
2022-08-19T11:02:58.517Z,99261.75
2022-08-19T11:05:25.287Z,99250.25
2022-08-19T11:07:52.749Z,99249.88
2022-08-19T11:10:21.813Z,99253.03
2022-08-19T11:12:49.197Z,99258.97
2022-08-19T11:15:16.328Z,99259.75
2022-08-19T11:17:44.473Z,99257.34
2022-08-19T11:20:15.896Z,99244.28
2022-08-19T11:22:43.421Z,99248.63
2022-08-19T11:25:12.002Z,99251.41
2022-08-19T11:27:44.274Z,99248.25
2022-08-19T11:30:13.451Z,99251.41
2022-08-19T11:32:44.512Z,99253.72
2022-08-19T11:35:14.199Z,99249.75
2022-08-19T11:37:41.657Z,99246.59
2022-08-19T11:40:09.068Z,99245.28
2022-08-19T11:42:54.141Z,99258.00
2022-08-19T11:45:20.714Z,99251.28
2022-08-19T11:47:48.195Z,99237.06
2022-08-19T11:50:16.722Z,99250.06
2022-08-19T11:52:45.132Z,99247.22
2022-08-19T11:55:14.091Z,99258.28
2022-08-19T11:57:42.267Z,99248.81
2022-08-19T12:00:11.042Z,99251.28
2022-08-19T12:02:37.686Z,99242.19
2022-08-19T12:05:06.932Z,99246.41
2022-08-19T12:07:35.948Z,99249.47
2022-08-19T12:10:02.548Z,99238.81
2022-08-19T12:12:30.411Z,99252.63
2022-08-19T12:14:59.203Z,99246.69
2022-08-19T12:17:27.393Z,99243.91
2022-08-19T12:19:54.857Z,99240.38
2022-08-19T12:22:22.344Z,99244.81
2022-08-19T12:24:51.175Z,99230.53
2022-08-19T12:27:31.971Z,99230.03
2022-08-19T12:30:07.408Z,99233.94
2022-08-19T12:32:34.064Z,99234.28
2022-08-19T12:35:00.707Z,99233.75
2022-08-19T12:37:27.454Z,99222.56
2022-08-19T12:39:54.108Z,99226.44
2022-08-19T12:42:23.008Z,99226.84
2022-08-19T12:44:49.623Z,99217.97
2022-08-19T12:47:16.314Z,99230.38
2022-08-19T12:49:53.867Z,99223.25
2022-08-19T12:52:25.937Z,99212.84
2022-08-19T12:54:55.319Z,99222.25
2022-08-19T12:57:32.078Z,99224.56
2022-08-19T13:00:01.337Z,99219.00
2022-08-19T13:02:28.115Z,99217.84
2022-08-19T13:04:54.851Z,99216.72
2022-08-19T13:07:21.411Z,99225.41
2022-08-19T13:09:48.075Z,99230.97
2022-08-19T13:12:14.629Z,99220.75
2022-08-19T13:14:44.643Z,99223.78
2022-08-19T13:17:12.720Z,99214.53
2022-08-19T13:19:40.989Z,99213.28
2022-08-19T13:22:13.147Z,99209.16
2022-08-19T13:24:46.935Z,99224.03
2022-08-19T13:27:13.884Z,99229.03
2022-08-19T13:30:00.641Z,99230.81
2022-08-19T13:32:46.015Z,99225.78
2022-08-19T13:35:16.738Z,99231.31
2022-08-19T13:37:44.264Z,99233.38
2022-08-19T13:40:24.815Z,99239.94
2022-08-19T13:42:53.599Z,99246.78
2022-08-19T13:45:24.196Z,99229.78
2022-08-19T13:47:55.838Z,99230.50
2022-08-19T13:50:28.653Z,99223.56
2022-08-19T13:52:57.081Z,99217.34
2022-08-19T13:55:25.378Z,99240.19
2022-08-19T13:57:56.927Z,99225.75
2022-08-19T14:00:27.373Z,99231.84
2022-08-19T14:02:56.866Z,99236.22
2022-08-19T14:05:25.341Z,99234.06
2022-08-19T14:07:52.075Z,99240.16
2022-08-19T14:10:19.752Z,99229.91
2022-08-19T14:12:47.305Z,99237.88
2022-08-19T14:15:15.826Z,99228.38
2022-08-19T14:17:44.939Z,99229.97
2022-08-19T14:20:18.413Z,99238.63
2022-08-19T14:22:47.476Z,99244.22
2022-08-19T14:25:19.265Z,99244.28
2022-08-19T14:27:45.972Z,99235.59
2022-08-19T14:30:15.564Z,99231.09
2022-08-19T14:32:44.404Z,99229.72
2022-08-19T14:35:13.363Z,99221.53
2022-08-19T14:37:45.367Z,99215.03
2022-08-19T14:40:15.283Z,99214.41
2022-08-19T14:42:42.883Z,99219.91
2022-08-19T14:45:11.003Z,99214.78
2022-08-19T14:47:49.925Z,99216.94
2022-08-19T14:50:18.265Z,99220.75
2022-08-19T14:52:48.780Z,99221.69
2022-08-19T14:55:17.474Z,99220.34
2022-08-19T14:57:44.789Z,99220.34
2022-08-19T15:00:14.199Z,99232.88
2022-08-19T15:02:46.704Z,99227.25
2022-08-19T15:05:13.942Z,99215.94
2022-08-19T15:07:41.854Z,99224.19
2022-08-19T15:10:10.613Z,99231.78
2022-08-19T15:12:41.231Z,99230.16
2022-08-19T15:15:14.186Z,99228.13
2022-08-19T15:17:46.107Z,99230.22
2022-08-19T15:20:18.187Z,99246.69
2022-08-19T15:22:44.929Z,99228.56
2022-08-19T15:25:13.510Z,99227.72
2022-08-19T15:27:41.532Z,99225.56
2022-08-19T15:30:10.568Z,99225.69
2022-08-19T15:32:38.970Z,99222.53
2022-08-19T15:35:07.322Z,99252.19
2022-08-19T15:37:36.944Z,99247.34
2022-08-19T15:40:06.050Z,99239.59
2022-08-19T15:42:33.106Z,99237.28
2022-08-19T15:45:01.407Z,99234.88
2022-08-19T15:47:34.705Z,99241.44
2022-08-19T15:50:12.454Z,99231.22
2022-08-19T15:52:49.521Z,99245.00
2022-08-19T15:55:33.118Z,99243.97
2022-08-19T15:58:28.605Z,99247.28
2022-08-19T16:01:24.617Z,99239.63
2022-08-19T16:04:14.960Z,99235.28
2022-08-19T16:06:53.021Z,99237.25
2022-08-19T16:09:26.975Z,99235.31
2022-08-19T16:12:01.841Z,99234.31
2022-08-19T16:14:30.719Z,99269.28
2022-08-19T16:16:57.537Z,99241.72
2022-08-19T16:19:25.151Z,99251.22
2022-08-19T16:21:54.224Z,99251.50
2022-08-19T16:24:24.567Z,99252.66
2022-08-19T16:26:51.306Z,99258.22
2022-08-19T16:29:33.388Z,99267.25
2022-08-19T16:32:03.521Z,99258.13
2022-08-19T16:34:30.796Z,99258.75
2022-08-19T16:36:57.690Z,99271.84
2022-08-19T16:39:24.420Z,99276.63
2022-08-19T16:41:51.658Z,99276.03
2022-08-19T16:44:21.066Z,99271.97
2022-08-19T16:46:57.297Z,99270.94
2022-08-19T16:49:53.778Z,99280.38
2022-08-19T16:52:19.177Z,99276.47
2022-08-19T16:54:45.834Z,99282.91
2022-08-19T16:57:13.079Z,99278.56
2022-08-19T16:59:42.579Z,99273.84
2022-08-19T17:02:19.670Z,99281.44
2022-08-19T17:04:57.591Z,99286.22
2022-08-19T17:07:27.052Z,99279.50
2022-08-19T17:09:53.620Z,99275.19
2022-08-19T17:12:21.984Z,99267.25
2022-08-19T17:14:49.132Z,99287.81
2022-08-19T17:17:16.033Z,99287.81
2022-08-19T17:19:44.595Z,99276.72
2022-08-19T17:22:12.974Z,99275.50
2022-08-19T17:24:40.512Z,99285.34
2022-08-19T17:27:07.555Z,99275.91
2022-08-19T17:29:34.725Z,99274.34
2022-08-19T17:32:02.109Z,99273.50
2022-08-19T17:34:28.962Z,99278.22
2022-08-19T17:36:57.133Z,99275.44
2022-08-19T17:39:24.225Z,99282.94
2022-08-19T17:41:51.286Z,99276.97
2022-08-19T17:44:18.999Z,99278.53
2022-08-19T17:46:46.696Z,99289.56
2022-08-19T17:49:13.632Z,99284.75
2022-08-19T17:51:45.957Z,99282.31
2022-08-19T17:54:15.735Z,99287.47
2022-08-19T17:56:43.585Z,99286.66
2022-08-19T17:59:11.777Z,99295.28
2022-08-19T18:01:53.704Z,99298.47
2022-08-19T18:04:25.496Z,99301.59
2022-08-19T18:06:54.420Z,99303.16
2022-08-19T18:09:27.292Z,99292.06
2022-08-19T18:11:55.492Z,99294.84
2022-08-19T18:14:32.163Z,99300.75
2022-08-19T18:17:02.872Z,99297.19
2022-08-19T18:19:34.203Z,99302.28
2022-08-19T18:22:08.759Z,99302.31
2022-08-19T18:24:38.962Z,99320.44
2022-08-19T18:27:06.963Z,99333.00
2022-08-19T18:29:34.127Z,99320.31
2022-08-19T18:32:00.699Z,99314.72
2022-08-19T18:34:27.281Z,99317.84
2022-08-19T18:36:54.322Z,99324.13
2022-08-19T18:39:39.716Z,99318.53
2022-08-19T18:42:33.009Z,99322.06
2022-08-19T18:45:18.205Z,99330.28
2022-08-19T18:48:03.405Z,99330.25
2022-08-19T18:50:29.980Z,99340.88
2022-08-19T18:52:56.545Z,99332.97
2022-08-19T18:55:23.603Z,99333.38
2022-08-19T18:57:52.096Z,99333.31
2022-08-19T19:00:20.885Z,99346.69
2022-08-19T19:02:47.439Z,99341.94
2022-08-19T19:05:14.818Z,99344.75
2022-08-19T19:07:42.440Z,99351.44
2022-08-19T19:10:09.836Z,99356.53
2022-08-19T19:12:40.700Z,99350.59
2022-08-19T19:15:07.660Z,99348.25
2022-08-19T19:17:34.278Z,99354.56
2022-08-19T19:20:00.942Z,99353.34
2022-08-19T19:22:27.610Z,99350.56
2022-08-19T19:24:54.590Z,99350.53
2022-08-19T19:27:21.815Z,99351.28
2022-08-19T19:29:52.514Z,99346.13
2022-08-19T19:32:29.689Z,99348.47
2022-08-19T19:34:56.567Z,99358.31
2022-08-19T19:37:23.266Z,99355.16
2022-08-19T19:39:49.872Z,99352.75
2022-08-19T19:42:21.194Z,99355.91
2022-08-19T19:44:50.446Z,99355.47
2022-08-19T19:47:19.039Z,99349.53
2022-08-19T19:50:12.647Z,99359.00
2022-08-19T19:52:34.233Z,99361.75
2022-08-19T19:55:01.594Z,99356.56
2022-08-19T19:57:30.364Z,99359.72
2022-08-19T19:59:57.075Z,99363.59
2022-08-19T20:02:25.269Z,99363.59
2022-08-19T20:04:52.745Z,99367.50
2022-08-19T20:07:39.480Z,99364.31
2022-08-19T20:10:06.327Z,99369.84
2022-08-19T20:12:33.008Z,99361.53
2022-08-19T20:14:59.603Z,99358.00
2022-08-19T20:17:26.195Z,99356.38
2022-08-19T20:19:54.238Z,99361.84
2022-08-19T20:22:20.901Z,99355.47
2022-08-19T20:24:48.403Z,99353.06
2022-08-19T20:27:14.998Z,99362.44
2022-08-19T20:29:44.530Z,99358.44
2022-08-19T20:32:12.695Z,99352.88
2022-08-19T20:34:40.869Z,99354.78
2022-08-19T20:37:10.452Z,99361.81
2022-08-19T20:39:37.888Z,99358.94
2022-08-19T20:42:04.634Z,99347.47
2022-08-19T20:44:31.232Z,99363.94
2022-08-19T20:47:02.962Z,99362.69
2022-08-19T20:49:30.486Z,99372.88
2022-08-19T20:51:58.419Z,99356.66
2022-08-19T20:54:25.452Z,99366.44
2022-08-19T20:56:52.897Z,99364.50
2022-08-19T20:59:20.435Z,99359.34
2022-08-19T21:01:48.508Z,99370.75
2022-08-19T21:04:15.157Z,99371.53
2022-08-19T21:06:45.376Z,99362.06
2022-08-19T21:09:13.566Z,99369.53
2022-08-19T21:11:40.636Z,99362.44
2022-08-19T21:14:07.379Z,99377.34
2022-08-19T21:16:33.990Z,99359.25
2022-08-19T21:19:01.033Z,99379.69
2022-08-19T21:21:27.900Z,99376.50
2022-08-19T21:23:54.460Z,99370.59
2022-08-19T21:26:21.114Z,99373.28
2022-08-19T21:28:47.751Z,99376.41
2022-08-19T21:31:15.821Z,99378.72
2022-08-19T21:33:42.618Z,99379.53
2022-08-19T21:36:09.379Z,99377.13
2022-08-19T21:38:36.163Z,99382.22
2022-08-19T21:41:05.991Z,99387.28
2022-08-19T21:43:33.675Z,99391.22
2022-08-19T21:46:00.212Z,99390.78
2022-08-19T21:48:26.811Z,99397.44
2022-08-19T21:50:53.455Z,99394.22
2022-08-19T21:53:23.004Z,99405.59
2022-08-19T21:55:53.512Z,99409.09
2022-08-19T21:58:30.149Z,99404.28
2022-08-19T22:00:58.769Z,99409.00
2022-08-19T22:03:25.929Z,99416.03
2022-08-19T22:05:52.759Z,99421.53
2022-08-19T22:08:19.375Z,99424.72
2022-08-19T22:10:46.545Z,99424.28
2022-08-19T22:13:13.500Z,99433.94
2022-08-19T22:15:42.257Z,99435.84
2022-08-19T22:18:08.895Z,99429.84
2022-08-19T22:20:35.465Z,99437.94
2022-08-19T22:23:06.066Z,99430.84
2022-08-19T22:25:40.384Z,99434.34
2022-08-19T22:28:10.978Z,99429.56
2022-08-19T22:30:41.651Z,99435.38
2022-08-19T22:33:11.657Z,99439.63
2022-08-19T22:35:40.596Z,99437.97
2022-08-19T22:38:08.530Z,99434.78
2022-08-19T22:40:39.529Z,99433.94
2022-08-19T22:43:15.637Z,99440.16
2022-08-19T22:45:43.110Z,99433.50
2022-08-19T22:48:12.893Z,99433.50
2022-08-19T22:50:42.771Z,99432.84
2022-08-19T22:53:10.943Z,99427.34
2022-08-19T22:55:38.971Z,99426.97
2022-08-19T22:58:06.020Z,99436.44
2022-08-19T23:00:33.210Z,99424.66
2022-08-19T23:03:01.582Z,99430.16
2022-08-19T23:05:29.660Z,99429.41
2022-08-19T23:07:58.033Z,99431.81
2022-08-19T23:10:27.991Z,99433.78
2022-08-19T23:12:59.396Z,99431.72
2022-08-19T23:15:31.713Z,99424.59
2022-08-19T23:18:01.103Z,99423.78
2022-08-19T23:20:31.064Z,99426.84
2022-08-19T23:22:57.750Z,99421.66
2022-08-19T23:25:28.594Z,99417.66
2022-08-19T23:28:15.150Z,99422.44
2022-08-19T23:30:45.079Z,99421.94
2022-08-19T23:33:25.257Z,99421.78
2022-08-19T23:35:58.498Z,99417.84
2022-08-19T23:38:27.686Z,99422.50
2022-08-19T23:40:56.783Z,99424.19
2022-08-19T23:43:25.252Z,99425.78
2022-08-19T23:45:57.328Z,99420.19
2022-08-19T23:48:25.385Z,99421.00
2022-08-19T23:50:56.403Z,99422.94
2022-08-19T23:53:23.125Z,99414.28
2022-08-19T23:55:50.165Z,99415.28
2022-08-19T23:58:17.690Z,99412.38
